createdAt,value
2023-04-22T00:00:59.071Z,100.00
2023-04-22T00:03:30.114Z,100.00
2023-04-22T00:05:59.923Z,100.00
2023-04-22T00:08:31.076Z,100.00
2023-04-22T00:11:01.297Z,100.00
2023-04-22T00:13:30.993Z,100.00
2023-04-22T00:16:00.666Z,100.00
2023-04-22T00:18:30.228Z,100.00
2023-04-22T00:20:59.721Z,100.00
2023-04-22T00:23:30.650Z,100.00
2023-04-22T00:25:59.990Z,100.00
2023-04-22T00:28:29.650Z,100.00
2023-04-22T00:30:59.401Z,100.00
2023-04-22T00:33:29.015Z,100.00
2023-04-22T00:35:58.627Z,100.00
2023-04-22T00:38:29.627Z,100.00
2023-04-22T00:41:00.061Z,100.00
2023-04-22T00:43:29.531Z,100.00
2023-04-22T00:46:00.053Z,100.00
2023-04-22T00:49:59.165Z,100.00
2023-04-22T00:52:28.815Z,100.00
2023-04-22T00:54:58.767Z,100.00
2023-04-22T00:57:29.197Z,100.00
2023-04-22T00:59:58.848Z,100.00
2023-04-22T01:02:28.616Z,100.00
2023-04-22T01:04:59.815Z,100.00
2023-04-22T01:07:29.471Z,100.00
2023-04-22T01:09:59.675Z,100.00
2023-04-22T01:12:29.409Z,100.00
2023-04-22T01:14:59.214Z,100.00
2023-04-22T01:17:28.705Z,100.00
2023-04-22T01:20:00.212Z,100.00
2023-04-22T01:22:41.632Z,100.00
2023-04-22T01:25:13.618Z,100.00
2023-04-22T01:27:44.495Z,100.00
2023-04-22T01:30:15.269Z,100.00
2023-04-22T01:32:45.090Z,100.00
2023-04-22T01:35:15.116Z,100.00
2023-04-22T01:37:44.866Z,100.00
2023-04-22T01:40:20.167Z,100.00
2023-04-22T01:42:49.942Z,100.00
2023-04-22T01:45:19.610Z,100.00
2023-04-22T01:47:49.097Z,100.00
2023-04-22T01:50:18.628Z,100.00
2023-04-22T01:52:48.412Z,100.00
2023-04-22T01:55:19.574Z,100.00
2023-04-22T01:57:49.098Z,100.00
2023-04-22T02:00:19.391Z,100.00
2023-04-22T02:02:49.239Z,100.00
2023-04-22T02:05:21.008Z,100.00
2023-04-22T02:07:54.609Z,100.00
2023-04-22T02:10:25.715Z,100.00
2023-04-22T02:12:55.253Z,100.00
2023-04-22T02:15:25.009Z,100.00
2023-04-22T02:17:54.905Z,100.00
2023-04-22T02:20:24.730Z,100.00
2023-04-22T02:22:54.417Z,100.00
2023-04-22T02:25:25.544Z,100.00
2023-04-22T02:27:55.127Z,100.00
2023-04-22T02:30:24.889Z,100.00
2023-04-22T02:32:54.530Z,100.00
2023-04-22T02:35:24.070Z,100.00
2023-04-22T02:37:53.520Z,100.00
2023-04-22T02:40:25.027Z,100.00
2023-04-22T02:42:54.469Z,100.00
2023-04-22T02:45:24.146Z,100.00
2023-04-22T02:47:53.792Z,100.00
2023-04-22T02:50:23.531Z,100.00
2023-04-22T02:52:53.074Z,100.00
2023-04-22T02:55:26.078Z,100.00
2023-04-22T02:57:55.462Z,100.00
2023-04-22T03:00:25.251Z,100.00
2023-04-22T03:02:54.880Z,100.00
2023-04-22T03:05:24.739Z,100.00
2023-04-22T03:07:54.487Z,100.00
2023-04-22T03:10:25.753Z,100.00
2023-04-22T03:12:55.489Z,100.00
2023-04-22T03:15:24.988Z,100.00
2023-04-22T03:17:54.572Z,100.00
2023-04-22T03:20:24.224Z,100.00
2023-04-22T03:22:53.811Z,100.00
2023-04-22T03:25:24.812Z,100.00
2023-04-22T03:27:54.243Z,100.00
2023-04-22T03:30:24.070Z,100.00
2023-04-22T03:32:54.028Z,100.00
2023-04-22T03:35:23.735Z,100.00
2023-04-22T03:37:53.590Z,100.00
2023-04-22T03:40:24.793Z,100.00
2023-04-22T03:42:54.357Z,100.00
2023-04-22T03:45:24.414Z,100.00
2023-04-22T03:50:58.872Z,100.00
2023-04-22T03:53:28.539Z,100.00
2023-04-22T03:55:58.040Z,100.00
2023-04-22T03:58:27.750Z,100.00
2023-04-22T04:00:57.496Z,100.00
2023-04-22T04:03:30.891Z,100.00
2023-04-22T04:06:02.397Z,100.00
2023-04-22T04:08:32.008Z,100.00
2023-04-22T04:11:01.523Z,100.00
2023-04-22T04:13:32.687Z,100.00
2023-04-22T04:16:02.182Z,100.00
2023-04-22T04:18:31.830Z,100.00
2023-04-22T04:21:02.817Z,100.00
2023-04-22T04:23:32.595Z,100.00
2023-04-22T04:26:03.086Z,100.00
2023-04-22T04:28:34.774Z,100.00
2023-04-22T04:31:04.417Z,100.00
2023-04-22T04:33:34.032Z,100.00
2023-04-22T04:36:05.332Z,100.00
2023-04-22T04:38:34.808Z,100.00
2023-04-22T04:41:04.339Z,100.00
2023-04-22T04:43:34.024Z,100.00
2023-04-22T04:46:03.564Z,100.00
2023-04-22T04:48:36.539Z,100.00
2023-04-22T04:51:08.161Z,100.00
2023-04-22T04:53:37.765Z,100.00
2023-04-22T04:56:07.761Z,100.00
2023-04-22T04:58:37.352Z,100.00
2023-04-22T05:01:06.982Z,100.00
2023-04-22T05:03:36.873Z,100.00
2023-04-22T05:06:10.943Z,100.00
2023-04-22T05:08:40.546Z,100.00
2023-04-22T05:11:10.215Z,100.00
2023-04-22T05:13:39.867Z,100.00
2023-04-22T05:16:09.431Z,100.00
2023-04-22T05:18:40.450Z,100.00
2023-04-22T05:21:11.299Z,100.00
2023-04-22T05:23:41.005Z,100.00
2023-04-22T05:26:10.516Z,100.00
2023-04-22T05:28:40.092Z,100.00
2023-04-22T05:31:09.605Z,100.00
2023-04-22T05:33:39.073Z,100.00
2023-04-22T05:36:10.851Z,100.00
2023-04-22T05:38:40.394Z,100.00
2023-04-22T05:41:09.835Z,100.00
2023-04-22T05:43:39.554Z,100.00
2023-04-22T05:46:09.181Z,100.00
2023-04-22T05:48:38.889Z,100.00
2023-04-22T05:51:09.830Z,100.00
2023-04-22T05:53:39.220Z,100.00
2023-04-22T05:56:08.812Z,100.00
2023-04-22T05:58:38.387Z,100.00
2023-04-22T06:01:08.053Z,100.00
2023-04-22T06:03:37.719Z,100.00
2023-04-22T06:06:09.870Z,100.00
2023-04-22T06:08:39.287Z,100.00
2023-04-22T06:11:08.728Z,100.00
2023-04-22T06:13:38.140Z,100.00
2023-04-22T06:18:43.832Z,100.00
2023-04-22T06:21:15.167Z,100.00
2023-04-22T06:23:45.197Z,100.00
2023-04-22T06:26:14.926Z,100.00
2023-04-22T06:28:44.408Z,100.00
2023-04-22T06:31:13.857Z,95.15
2023-04-22T06:33:43.320Z,95.05
2023-04-22T06:36:15.576Z,96.06
2023-04-22T06:38:45.214Z,95.44
2023-04-22T06:41:14.932Z,93.94
2023-04-22T06:43:44.365Z,90.83
2023-04-22T06:46:13.895Z,86.74
2023-04-22T06:50:58.851Z,87.94
2023-04-22T06:53:28.336Z,86.77
2023-04-22T06:55:57.906Z,87.97
2023-04-22T06:58:27.425Z,88.49
2023-04-22T07:00:57.006Z,88.26
2023-04-22T07:03:26.807Z,89.57
2023-04-22T07:05:57.836Z,90.94
2023-04-22T07:08:27.353Z,89.90
2023-04-22T07:10:58.091Z,86.35
2023-04-22T07:13:27.586Z,85.97
2023-04-22T07:15:57.130Z,84.87
2023-04-22T07:18:26.697Z,84.74
2023-04-22T07:20:57.748Z,82.73
2023-04-22T07:23:27.365Z,82.98
2023-04-22T07:25:57.094Z,82.10
2023-04-22T07:28:26.636Z,75.78
2023-04-22T07:30:56.845Z,79.50
2023-04-22T07:33:26.367Z,76.64
2023-04-22T07:35:57.394Z,79.40
2023-04-22T07:38:28.427Z,80.65
2023-04-22T07:40:58.145Z,81.40
2023-04-22T07:43:27.701Z,83.24
2023-04-22T07:45:57.381Z,85.57
2023-04-22T07:48:26.944Z,87.06
2023-04-22T07:50:57.911Z,90.54
2023-04-22T07:53:27.489Z,90.98
2023-04-22T07:55:59.804Z,91.94
2023-04-22T07:58:30.437Z,93.17
2023-04-22T08:00:59.982Z,94.02
2023-04-22T08:03:29.795Z,94.25
2023-04-22T08:06:00.840Z,94.67
2023-04-22T08:08:30.616Z,96.08
2023-04-22T08:11:00.265Z,96.92
2023-04-22T08:13:29.771Z,97.66
2023-04-22T08:15:59.503Z,98.53
2023-04-22T08:18:29.098Z,99.72
2023-04-22T08:21:00.495Z,99.73
2023-04-22T08:23:29.859Z,100.00
2023-04-22T08:25:59.438Z,100.00
2023-04-22T08:28:28.939Z,100.00
2023-04-22T08:30:58.460Z,100.00
2023-04-22T08:33:28.157Z,100.00
2023-04-22T08:35:57.915Z,100.00
2023-04-22T08:38:28.917Z,100.00
2023-04-22T08:40:59.640Z,100.00
2023-04-22T08:43:29.437Z,100.00
2023-04-22T08:45:59.027Z,100.00
2023-04-22T08:48:29.094Z,100.00
2023-04-22T08:51:00.272Z,100.00
2023-04-22T08:53:31.292Z,100.00
2023-04-22T08:56:01.973Z,100.00
2023-04-22T08:58:33.648Z,100.00
2023-04-22T09:01:05.176Z,100.00
2023-04-22T09:03:36.709Z,100.00
2023-04-22T09:06:07.662Z,98.82
2023-04-22T09:08:38.751Z,100.00
2023-04-22T09:11:08.153Z,100.00
2023-04-22T09:13:37.573Z,100.00
2023-04-22T09:16:07.615Z,100.00
2023-04-22T09:18:43.462Z,100.00
2023-04-22T09:21:13.227Z,100.00
2023-04-22T09:23:53.348Z,100.00
2023-04-22T09:26:23.694Z,100.00
2023-04-22T09:28:54.871Z,100.00
2023-04-22T09:31:26.109Z,100.00
2023-04-22T09:33:58.797Z,100.00
2023-04-22T09:36:29.189Z,100.00
2023-04-22T09:39:01.704Z,100.00
2023-04-22T09:41:32.009Z,100.00
2023-04-22T09:44:03.338Z,100.00
2023-04-22T09:46:35.287Z,100.00
2023-04-22T09:50:58.689Z,100.00
2023-04-22T09:53:28.034Z,100.00
2023-04-22T09:55:57.672Z,100.00
2023-04-22T09:58:28.139Z,100.00
2023-04-22T10:01:00.354Z,100.00
2023-04-22T10:03:29.953Z,100.00
2023-04-22T10:06:02.159Z,100.00
2023-04-22T10:08:33.618Z,100.00
2023-04-22T10:11:03.155Z,100.00
2023-04-22T10:13:34.758Z,100.00
2023-04-22T10:16:05.306Z,100.00
2023-04-22T10:18:37.744Z,100.00
2023-04-22T10:21:09.570Z,100.00
2023-04-22T10:23:39.218Z,100.00
2023-04-22T10:26:08.863Z,100.00
2023-04-22T10:28:43.387Z,100.00
2023-04-22T10:31:23.962Z,100.00
2023-04-22T10:33:53.577Z,100.00
2023-04-22T10:36:24.612Z,100.00
2023-04-22T10:39:19.307Z,100.00
2023-04-22T10:41:56.970Z,100.00
2023-04-22T10:44:31.992Z,100.00
2023-04-22T10:47:02.842Z,100.00
2023-04-22T10:49:35.168Z,100.00
2023-04-22T10:52:09.667Z,100.00
2023-04-22T10:55:01.929Z,100.00
2023-04-22T10:57:43.034Z,100.00
2023-04-22T11:00:52.274Z,100.00
2023-04-22T11:03:30.472Z,100.00
2023-04-22T11:06:22.528Z,100.00
2023-04-22T11:09:13.108Z,100.00
2023-04-22T11:11:42.636Z,100.00
2023-04-22T11:14:13.134Z,100.00
2023-04-22T11:16:49.331Z,100.00
2023-04-22T11:19:18.967Z,100.00
2023-04-22T11:21:50.090Z,100.00
2023-04-22T11:24:22.493Z,100.00
2023-04-22T11:26:52.023Z,100.00
2023-04-22T11:29:21.575Z,100.00
2023-04-22T11:31:51.562Z,100.00
2023-04-22T11:34:21.150Z,100.00
2023-04-22T11:36:50.637Z,100.00
2023-04-22T11:39:21.480Z,100.00
2023-04-22T11:41:51.050Z,100.00
2023-04-22T11:44:26.009Z,100.00
2023-04-22T11:46:59.350Z,100.00
2023-04-22T11:49:28.928Z,100.00
2023-04-22T11:51:59.234Z,100.00
2023-04-22T11:54:38.534Z,100.00
2023-04-22T11:57:14.391Z,100.00
2023-04-22T11:59:44.346Z,100.00
2023-04-22T12:02:13.895Z,100.00
2023-04-22T12:04:44.007Z,100.00
2023-04-22T12:07:13.560Z,100.00
2023-04-22T12:09:44.555Z,100.00
2023-04-22T12:12:13.990Z,100.00
2023-04-22T12:14:48.350Z,100.00
2023-04-22T12:17:20.334Z,100.00
2023-04-22T12:19:50.191Z,100.00
2023-04-22T12:22:27.715Z,100.00
2023-04-22T12:25:00.968Z,100.00
2023-04-22T12:27:30.869Z,100.00
2023-04-22T12:30:00.864Z,100.00
2023-04-22T12:32:30.552Z,100.00
2023-04-22T12:35:00.134Z,100.00
2023-04-22T12:37:29.670Z,100.00
2023-04-22T12:40:00.689Z,100.00
2023-04-22T12:42:30.162Z,100.00
2023-04-22T12:44:59.582Z,100.00
2023-04-22T12:50:58.850Z,100.00
2023-04-22T12:53:29.639Z,100.00
2023-04-22T12:55:59.568Z,100.00
2023-04-22T12:58:29.365Z,100.00
2023-04-22T13:00:58.954Z,99.22
2023-04-22T13:03:28.771Z,100.00
2023-04-22T13:06:00.076Z,100.00
2023-04-22T13:08:30.103Z,100.00
2023-04-22T13:11:00.428Z,100.00
2023-04-22T13:13:30.021Z,100.00
2023-04-22T13:15:59.675Z,100.00
2023-04-22T13:18:29.230Z,99.50
2023-04-22T13:21:00.573Z,99.12
2023-04-22T13:23:30.257Z,97.09
2023-04-22T13:25:59.659Z,96.31
2023-04-22T13:28:30.244Z,97.06
2023-04-22T13:31:00.346Z,94.21
2023-04-22T13:33:29.808Z,93.82
2023-04-22T13:36:00.676Z,93.01
2023-04-22T13:38:30.190Z,91.37
2023-04-22T13:41:01.288Z,93.44
2023-04-22T13:43:32.794Z,94.10
2023-04-22T13:46:02.300Z,91.71
2023-04-22T13:48:32.542Z,91.96
2023-04-22T13:51:03.560Z,89.85
2023-04-22T13:53:34.527Z,89.03
2023-04-22T13:56:04.303Z,89.34
2023-04-22T13:58:33.845Z,90.18
2023-04-22T14:01:04.524Z,92.00
2023-04-22T14:03:34.289Z,92.47
2023-04-22T14:06:05.703Z,89.03
2023-04-22T14:08:35.239Z,88.33
2023-04-22T14:11:05.438Z,88.96
2023-04-22T14:13:35.064Z,88.48
2023-04-22T14:16:09.735Z,86.06
2023-04-22T14:18:40.652Z,88.39
2023-04-22T14:21:11.949Z,89.76
2023-04-22T14:23:42.557Z,89.10
2023-04-22T14:26:13.968Z,89.01
2023-04-22T14:28:44.592Z,87.84
2023-04-22T14:31:15.409Z,87.95
2023-04-22T14:33:45.018Z,89.41
2023-04-22T14:36:16.179Z,89.33
2023-04-22T14:38:45.864Z,89.78
2023-04-22T14:41:15.796Z,90.11
2023-04-22T14:43:45.492Z,90.59
2023-04-22T14:46:15.213Z,89.47
2023-04-22T14:48:45.078Z,90.23
2023-04-22T14:51:16.300Z,90.01
2023-04-22T14:53:46.077Z,89.76
2023-04-22T14:56:15.528Z,87.21
2023-04-22T14:58:44.978Z,86.40
2023-04-22T15:01:14.485Z,87.33
2023-04-22T15:03:44.271Z,88.83
2023-04-22T15:06:15.621Z,88.55
2023-04-22T15:08:45.150Z,86.34
2023-04-22T15:11:14.654Z,82.65
2023-04-22T15:13:44.070Z,81.60
2023-04-22T15:16:13.890Z,83.72
2023-04-22T15:18:43.460Z,84.06
2023-04-22T15:21:14.448Z,81.75
2023-04-22T15:23:43.987Z,80.66
2023-04-22T15:26:13.916Z,81.58
2023-04-22T15:28:43.468Z,82.42
2023-04-22T15:31:12.991Z,82.31
2023-04-22T15:33:43.415Z,80.46
2023-04-22T15:36:18.423Z,81.63
2023-04-22T15:38:47.926Z,81.52
2023-04-22T15:41:17.504Z,83.01
2023-04-22T15:43:46.866Z,84.37
2023-04-22T15:46:16.692Z,86.53
2023-04-22T15:50:58.618Z,90.76
2023-04-22T15:53:28.064Z,92.83
2023-04-22T15:55:58.330Z,95.00
2023-04-22T15:58:28.976Z,95.54
2023-04-22T16:01:11.588Z,97.03
2023-04-22T16:03:47.700Z,98.32
2023-04-22T16:06:20.154Z,99.81
2023-04-22T16:08:49.767Z,100.00
2023-04-22T16:11:19.306Z,100.00
2023-04-22T16:13:48.946Z,100.00
2023-04-22T16:16:19.163Z,100.00
2023-04-22T16:18:49.769Z,100.00
2023-04-22T16:21:21.194Z,100.00
2023-04-22T16:23:50.771Z,100.00
2023-04-22T16:26:20.217Z,100.00
2023-04-22T16:28:50.158Z,100.00
2023-04-22T16:31:23.092Z,100.00
2023-04-22T16:33:53.349Z,100.00
2023-04-22T16:36:24.842Z,100.00
2023-04-22T16:38:54.376Z,100.00
2023-04-22T16:41:23.901Z,100.00
2023-04-22T16:43:53.608Z,100.00
2023-04-22T16:46:23.289Z,100.00
2023-04-22T16:48:52.781Z,100.00
2023-04-22T16:51:23.964Z,100.00
2023-04-22T16:53:53.385Z,100.00
2023-04-22T16:56:24.257Z,100.00
2023-04-22T16:58:53.691Z,100.00
2023-04-22T17:01:24.033Z,100.00
2023-04-22T17:03:53.921Z,100.00
2023-04-22T17:06:25.193Z,100.00
2023-04-22T17:08:54.768Z,100.00
2023-04-22T17:11:25.554Z,100.00
2023-04-22T17:13:55.091Z,100.00
2023-04-22T17:16:24.658Z,100.00
2023-04-22T17:18:54.142Z,100.00
2023-04-22T17:21:25.433Z,100.00
2023-04-22T17:23:54.986Z,100.00
2023-04-22T17:26:24.535Z,100.00
2023-04-22T17:28:53.928Z,100.00
2023-04-22T17:31:23.777Z,100.00
2023-04-22T17:33:53.392Z,100.00
2023-04-22T17:36:29.460Z,100.00
2023-04-22T17:39:02.955Z,100.00
2023-04-22T17:41:32.378Z,100.00
2023-04-22T17:44:02.018Z,100.00
2023-04-22T17:46:31.784Z,100.00
2023-04-22T17:49:01.351Z,100.00
2023-04-22T17:51:32.670Z,100.00
2023-04-22T17:54:03.484Z,100.00
2023-04-22T17:56:33.089Z,100.00
2023-04-22T17:59:02.691Z,100.00
2023-04-22T18:01:32.586Z,100.00
2023-04-22T18:04:02.541Z,100.00
2023-04-22T18:06:33.819Z,100.00
2023-04-22T18:09:03.326Z,100.00
2023-04-22T18:11:32.802Z,100.00
2023-04-22T18:14:02.679Z,100.00
2023-04-22T18:16:32.648Z,100.00
2023-04-22T18:19:04.274Z,100.00
2023-04-22T18:21:36.104Z,100.00
2023-04-22T18:24:06.514Z,100.00
2023-04-22T18:26:36.175Z,100.00
2023-04-22T18:29:05.939Z,100.00
2023-04-22T18:31:35.535Z,100.00
2023-04-22T18:34:05.972Z,100.00
2023-04-22T18:36:37.023Z,100.00
2023-04-22T18:39:06.715Z,100.00
2023-04-22T18:41:36.132Z,100.00
2023-04-22T18:44:05.952Z,100.00
2023-04-22T18:46:36.667Z,100.00
2023-04-22T18:51:01.714Z,100.00
2023-04-22T18:53:31.304Z,100.00
2023-04-22T18:56:00.748Z,100.00
2023-04-22T18:58:30.211Z,100.00
2023-04-22T19:00:59.693Z,100.00
2023-04-22T19:03:29.422Z,100.00
2023-04-22T19:06:00.391Z,100.00
2023-04-22T19:08:29.730Z,100.00
2023-04-22T19:11:00.507Z,100.00
2023-04-22T19:13:30.470Z,100.00
2023-04-22T19:16:02.219Z,100.00
2023-04-22T19:18:31.841Z,100.00
2023-04-22T19:21:03.292Z,100.00
2023-04-22T19:23:32.897Z,100.00
2023-04-22T19:26:02.582Z,100.00
2023-04-22T19:28:32.240Z,100.00
2023-04-22T19:31:01.844Z,100.00
2023-04-22T19:33:31.846Z,100.00
2023-04-22T19:36:02.812Z,100.00
2023-04-22T19:38:32.393Z,100.00
2023-04-22T19:41:02.197Z,100.00
2023-04-22T19:43:31.856Z,100.00
2023-04-22T19:46:01.362Z,100.00
2023-04-22T19:48:31.557Z,100.00
2023-04-22T19:51:03.157Z,100.00
2023-04-22T19:53:33.075Z,100.00
2023-04-22T19:56:03.227Z,100.00
2023-04-22T19:58:34.019Z,100.00
2023-04-22T20:01:04.871Z,100.00
2023-04-22T20:03:35.398Z,100.00
2023-04-22T20:06:08.007Z,100.00
2023-04-22T20:08:42.055Z,100.00
2023-04-22T20:11:12.536Z,100.00
2023-04-22T20:13:42.866Z,100.00
2023-04-22T20:16:14.070Z,100.00
2023-04-22T20:18:44.309Z,100.00
2023-04-22T20:21:16.173Z,100.00
2023-04-22T20:23:47.371Z,100.00
2023-04-22T20:26:21.593Z,100.00
2023-04-22T20:28:54.264Z,100.00
2023-04-22T20:31:24.245Z,100.00
2023-04-22T20:33:54.477Z,100.00
2023-04-22T20:36:26.709Z,100.00
2023-04-22T20:38:59.467Z,100.00
2023-04-22T20:41:29.733Z,100.00
2023-04-22T20:43:59.479Z,100.00
2023-04-22T20:46:29.069Z,100.00
2023-04-22T20:48:58.657Z,100.00
2023-04-22T20:51:30.417Z,100.00
2023-04-22T20:54:00.121Z,100.00
2023-04-22T20:56:29.728Z,100.00
2023-04-22T20:58:59.326Z,100.00
2023-04-22T21:01:30.541Z,100.00
2023-04-22T21:04:00.995Z,100.00
2023-04-22T21:06:34.816Z,100.00
2023-04-22T21:09:07.614Z,100.00
2023-04-22T21:11:38.275Z,100.00
2023-04-22T21:14:08.712Z,100.00
2023-04-22T21:16:43.185Z,100.00
2023-04-22T21:19:14.844Z,100.00
2023-04-22T21:21:47.355Z,100.00
2023-04-22T21:24:17.336Z,100.00
2023-04-22T21:26:50.433Z,100.00
2023-04-22T21:29:21.028Z,100.00
2023-04-22T21:32:04.928Z,100.00
2023-04-22T21:34:37.272Z,100.00
2023-04-22T21:37:09.565Z,100.00
2023-04-22T21:39:39.146Z,100.00
2023-04-22T21:42:09.064Z,100.00
2023-04-22T21:44:39.812Z,100.00
2023-04-22T21:47:09.546Z,100.00
2023-04-22T21:50:58.206Z,100.00
2023-04-22T21:53:27.765Z,100.00
2023-04-22T21:55:57.441Z,100.00
2023-04-22T21:58:27.117Z,100.00
2023-04-22T22:00:56.924Z,100.00
2023-04-22T22:03:26.774Z,100.00
2023-04-22T22:05:58.084Z,100.00
2023-04-22T22:08:27.881Z,100.00
2023-04-22T22:10:58.096Z,100.00
2023-04-22T22:13:27.728Z,100.00
2023-04-22T22:15:57.853Z,100.00
2023-04-22T22:18:27.518Z,100.00
2023-04-22T22:20:58.460Z,100.00
2023-04-22T22:23:28.026Z,100.00
2023-04-22T22:25:57.499Z,100.00
2023-04-22T22:28:27.314Z,100.00
2023-04-22T22:31:02.358Z,100.00
2023-04-22T22:33:32.286Z,100.00
2023-04-22T22:36:03.228Z,100.00
2023-04-22T22:38:32.789Z,100.00
2023-04-22T22:41:02.194Z,100.00
2023-04-22T22:43:31.734Z,100.00
2023-04-22T22:46:01.289Z,100.00
2023-04-22T22:48:31.127Z,100.00
2023-04-22T22:51:02.055Z,100.00
2023-04-22T22:53:32.819Z,100.00
2023-04-22T22:56:02.344Z,100.00
2023-04-22T22:58:34.203Z,100.00
2023-04-22T23:01:03.880Z,100.00
2023-04-22T23:03:33.893Z,100.00
2023-04-22T23:06:04.977Z,100.00
2023-04-22T23:08:34.540Z,100.00
2023-04-22T23:11:04.144Z,100.00
2023-04-22T23:13:33.712Z,100.00
2023-04-22T23:16:03.247Z,100.00
2023-04-22T23:18:34.096Z,100.00
2023-04-22T23:21:06.851Z,100.00
2023-04-22T23:23:37.218Z,100.00
2023-04-22T23:26:08.044Z,100.00
2023-04-22T23:28:38.662Z,100.00
2023-04-22T23:31:09.200Z,100.00
2023-04-22T23:33:44.254Z,100.00
2023-04-22T23:36:16.815Z,100.00
2023-04-22T23:38:47.346Z,100.00
2023-04-22T23:41:16.867Z,100.00
2023-04-22T23:43:46.357Z,100.00
2023-04-22T23:46:17.995Z,100.00
2023-04-22T23:48:48.697Z,100.00
2023-04-22T23:51:19.841Z,100.00
2023-04-22T23:53:49.477Z,100.00
2023-04-22T23:56:21.512Z,100.00
2023-04-22T23:58:52.448Z,100.00
